Time;durP1;ratioP1;P1;durP2;ratioP2;P2;SDS_P1;SDS_P2;PMS_P1;PMS_P2;Temp;Humidity;BMP_temperature;BMP_pressure;BME280_temperature;BME280_humidity;BME280_pressure;Samples;Min_cycle;Max_cycle;Signal;HPM_P1;HPM_P2
2022/06/01 04:05:36;;;;;;;3.45;3.00;;;11.40;99.90;;;;;;4975807;28;20311;-63
2022/06/01 04:08:02;;;;;;;5.37;4.87;;;11.40;99.90;;;;;;4976996;28;20195;-62
2022/06/01 04:10:28;;;;;;;5.55;5.15;;;11.50;99.90;;;;;;4978023;28;20872;-64
2022/06/01 04:12:54;;;;;;;5.10;4.70;;;11.50;99.90;;;;;;4976821;28;20215;-63
2022/06/01 04:15:19;;;;;;;3.60;3.00;;;11.60;99.90;;;;;;4969798;28;20669;-63
2022/06/01 04:17:45;;;;;;;4.30;4.00;;;11.70;99.90;;;;;;4958459;29;20209;-63
2022/06/01 04:20:12;;;;;;;5.60;3.10;;;11.80;99.90;;;;;;4958741;29;20704;-64
2022/06/01 04:22:40;;;;;;;3.30;3.10;;;12.00;99.90;;;;;;4958056;28;20178;-63
2022/06/01 04:25:08;;;;;;;3.67;2.83;;;12.10;99.90;;;;;;4958338;28;20298;-64
2022/06/01 04:27:35;;;;;;;3.70;3.27;;;12.30;99.90;;;;;;4960506;28;20462;-64
2022/06/01 04:30:00;;;;;;;2.43;2.23;;;12.40;99.90;;;;;;4977705;28;20499;-64
2022/06/01 04:32:31;;;;;;;2.93;2.73;;;12.60;99.90;;;;;;4976748;28;20892;-65
2022/06/01 04:34:58;;;;;;;5.23;3.00;;;12.80;99.90;;;;;;4975386;28;20447;-64
2022/06/01 04:37:23;;;;;;;3.00;2.80;;;13.00;99.90;;;;;;4977585;28;20410;-64
2022/06/01 04:39:49;;;;;;;2.83;2.60;;;13.20;99.90;;;;;;4977457;28;20410;-64
2022/06/01 04:42:14;;;;;;;2.43;2.30;;;13.40;99.90;;;;;;4975237;28;20203;-65
2022/06/01 04:44:41;;;;;;;2.43;2.30;;;13.70;99.90;;;;;;4957518;29;20204;-64
2022/06/01 04:47:08;;;;;;;3.30;3.00;;;13.90;99.90;;;;;;4958120;28;20184;-63
2022/06/01 04:49:33;;;;;;;3.17;2.97;;;14.20;99.90;;;;;;4957944;28;20423;-63
2022/06/01 04:51:59;;;;;;;2.80;2.60;;;14.40;99.90;;;;;;4970267;28;20434;-65
2022/06/01 04:54:25;;;;;;;3.00;2.80;;;14.60;99.90;;;;;;4976555;28;20188;-64
2022/06/01 04:56:51;;;;;;;2.53;2.33;;;14.80;99.90;;;;;;4975582;28;20176;-64
2022/06/01 04:59:17;;;;;;;3.27;3.07;;;14.90;99.90;;;;;;4977156;28;20620;-65
2022/06/01 05:01:43;;;;;;;2.83;2.73;;;15.10;99.90;;;;;;4977393;28;20454;-63
2022/06/01 05:04:09;;;;;;;2.97;2.70;;;15.10;99.90;;;;;;4976508;28;20486;-63
2022/06/01 05:06:35;;;;;;;2.40;2.30;;;15.00;99.90;;;;;;4972591;28;20423;-65
2022/06/01 05:09:00;;;;;;;3.13;2.70;;;15.00;99.90;;;;;;4969008;28;20548;-63
2022/06/01 05:11:26;;;;;;;4.10;3.80;;;15.10;99.90;;;;;;4957543;29;20242;-64
2022/06/01 05:13:52;;;;;;;3.17;2.97;;;15.20;99.90;;;;;;4958128;28;20553;-65
2022/06/01 05:16:17;;;;;;;3.10;2.90;;;15.30;99.90;;;;;;4957399;29;20176;-65
2022/06/01 05:18:44;;;;;;;2.70;2.60;;;15.40;99.90;;;;;;4957524;29;20166;-64
2022/06/01 05:21:09;;;;;;;3.07;2.73;;;15.40;99.90;;;;;;4957436;28;20180;-65
2022/06/01 05:23:35;;;;;;;2.20;2.10;;;15.60;99.90;;;;;;4956939;29;20833;-64
2022/06/01 05:26:02;;;;;;;2.90;2.70;;;15.70;99.90;;;;;;4966238;28;20237;-64
2022/06/01 05:28:29;;;;;;;2.73;2.53;;;15.90;99.90;;;;;;4976725;28;20497;-65
2022/06/01 05:31:04;;;;;;;2.67;2.50;;;16.00;99.90;;;;;;4966645;28;20460;-64
2022/06/01 05:33:30;;;;;;;2.57;2.40;;;16.10;99.90;;;;;;4955541;28;20785;-64
2022/06/01 05:35:56;;;;;;;2.23;2.03;;;16.30;99.90;;;;;;4957329;28;20410;-64
2022/06/01 05:38:21;;;;;;;3.10;2.90;;;16.40;99.90;;;;;;4957073;29;20177;-64
2022/06/01 05:40:47;;;;;;;2.73;2.60;;;16.50;99.90;;;;;;4957995;28;20184;-64
2022/06/01 05:43:15;;;;;;;2.20;2.10;;;16.70;99.90;;;;;;4969164;28;20208;-63
2022/06/01 05:45:41;;;;;;;2.10;2.00;;;16.80;99.90;;;;;;4976142;28;20177;-63
2022/06/01 05:48:09;;;;;;;2.60;2.40;;;16.80;99.90;;;;;;4976240;28;20411;-64
2022/06/01 05:50:35;;;;;;;1.83;1.73;;;17.10;99.90;;;;;;4976146;28;20484;-64
2022/06/01 05:53:01;;;;;;;2.40;2.20;;;17.30;99.90;;;;;;4975664;28;20885;-65
2022/06/01 05:55:26;;;;;;;1.80;1.70;;;17.50;99.90;;;;;;4967243;28;20942;-65
2022/06/01 05:57:52;;;;;;;1.83;1.73;;;17.60;99.90;;;;;;4956732;28;20175;-65
2022/06/01 06:00:19;;;;;;;2.10;2.00;;;17.80;99.90;;;;;;4956552;29;20180;-64
2022/06/01 06:02:45;;;;;;;1.97;1.87;;;17.80;99.90;;;;;;4956460;28;20179;-64
2022/06/01 06:07:57;;;;;;;1.87;1.77;;;17.90;99.90;;;;;;4956757;29;20789;-63
2022/06/01 06:10:24;;;;;;;2.00;2.00;;;17.90;99.90;;;;;;4967040;28;20451;-65
2022/06/01 06:12:50;;;;;;;4.43;2.10;;;17.90;99.90;;;;;;4975558;28;20780;-64
2022/06/01 06:15:16;;;;;;;2.17;2.03;;;18.00;99.90;;;;;;4975485;28;20409;-66
2022/06/01 06:17:42;;;;;;;2.33;2.23;;;17.90;99.90;;;;;;4975455;28;20847;-66
2022/06/01 06:20:09;;;;;;;2.47;1.87;;;18.00;99.90;;;;;;4975563;28;20450;-65
2022/06/01 06:22:35;;;;;;;2.10;1.90;;;18.10;99.90;;;;;;4975238;28;20418;-66
2022/06/01 06:25:00;;;;;;;3.17;2.97;;;18.20;99.90;;;;;;4965306;28;20433;-65
2022/06/01 06:27:27;;;;;;;2.13;1.93;;;18.30;99.90;;;;;;4955089;29;20176;-65
2022/06/01 06:29:53;;;;;;;2.43;2.23;;;18.30;99.90;;;;;;4962524;28;20188;-65
2022/06/01 06:32:19;;;;;;;2.53;2.23;;;18.30;99.90;;;;;;4974953;28;20411;-64
2022/06/01 06:34:46;;;;;;;3.23;1.70;;;18.30;99.90;;;;;;4974122;28;20938;-66
2022/06/01 06:37:12;;;;;;;2.93;2.63;;;18.40;99.90;;;;;;4975368;28;20410;-66
2022/06/01 06:39:38;;;;;;;2.57;2.37;;;18.50;99.90;;;;;;4975645;28;20174;-66
2022/06/01 06:42:04;;;;;;;2.50;2.30;;;18.60;99.90;;;;;;4975127;28;20255;-65
2022/06/01 06:44:29;;;;;;;2.43;2.23;;;18.80;99.90;;;;;;4968003;28;20205;-66
2022/06/01 06:46:55;;;;;;;2.47;2.27;;;18.90;99.90;;;;;;4955960;29;20391;-65
2022/06/01 06:49:21;;;;;;;2.63;2.47;;;19.10;99.90;;;;;;4955823;29;20177;-64
2022/06/01 06:51:49;;;;;;;2.23;2.10;;;19.20;99.60;;;;;;4955906;29;20553;-65
2022/06/01 06:54:15;;;;;;;2.30;2.20;;;19.30;98.80;;;;;;4955749;28;20521;-65
2022/06/01 06:56:40;;;;;;;2.23;2.13;;;19.40;98.80;;;;;;4954501;29;20416;-66
2022/06/01 06:59:06;;;;;;;2.80;2.60;;;19.40;98.70;;;;;;4961052;28;20424;-65
2022/06/01 07:01:32;;;;;;;2.30;2.10;;;19.60;98.90;;;;;;4975042;28;20184;-65
2022/06/01 07:03:58;;;;;;;2.20;2.00;;;19.80;99.00;;;;;;4974523;28;20398;-64
2022/06/01 07:06:25;;;;;;;2.60;2.40;;;19.80;98.90;;;;;;4974812;28;20419;-64
2022/06/01 07:08:54;;;;;;;2.30;2.20;;;19.90;98.30;;;;;;4958062;28;20685;-65
2022/06/01 07:11:24;;;;;;;2.30;2.20;;;19.90;98.40;;;;;;4955285;28;20479;-65
2022/06/01 07:13:50;;;;;;;2.90;2.70;;;20.00;98.80;;;;;;4955135;28;20445;-64
2022/06/01 07:16:22;;;;;;;2.20;2.10;;;20.10;98.60;;;;;;4955534;29;20503;-64
2022/06/01 07:18:50;;;;;;;2.20;2.00;;;20.20;98.00;;;;;;4955364;28;20400;-66
2022/06/01 07:21:17;;;;;;;2.10;2.00;;;20.30;97.80;;;;;;4955386;28;20858;-64
2022/06/01 07:23:44;;;;;;;2.50;2.40;;;20.50;97.90;;;;;;4972303;28;20481;-66
2022/06/01 07:26:29;;;;;;;2.50;2.30;;;20.90;96.70;;;;;;4974671;28;20412;-64
2022/06/01 07:28:55;;;;;;;2.00;1.90;;;21.50;96.50;;;;;;4974652;28;20393;-66
2022/06/01 07:31:21;;;;;;;2.30;2.20;;;22.30;95.30;;;;;;4974213;28;20501;-66
2022/06/01 07:33:47;;;;;;;3.10;2.23;;;23.20;94.60;;;;;;4973867;28;20415;-66
2022/06/01 07:36:14;;;;;;;2.60;2.40;;;24.30;93.30;;;;;;4974435;28;20416;-66
2022/06/01 07:44:13;;;;;;;1.80;1.70;;;28.30;82.70;;;;;;4954866;29;20812;-68
2022/06/01 07:46:39;;;;;;;3.27;2.40;;;29.80;79.10;;;;;;4955274;29;20448;-67
2022/06/01 07:49:08;;;;;;;1.97;1.87;;;30.80;73.00;;;;;;4955221;28;20522;-66
2022/06/01 07:51:35;;;;;;;2.23;2.13;;;31.70;69.00;;;;;;4959591;28;20459;-66
2022/06/01 07:54:01;;;;;;;3.07;2.60;;;32.40;63.80;;;;;;4973888;28;20410;-67
2022/06/01 07:56:27;;;;;;;2.40;2.30;;;32.80;62.40;;;;;;4974365;28;20426;-67
2022/06/01 07:58:52;;;;;;;2.17;2.03;;;33.30;60.20;;;;;;4974392;28;20302;-66
2022/06/01 08:01:25;;;;;;;2.70;2.50;;;33.80;58.20;;;;;;4957894;28;20189;-67
2022/06/01 08:03:57;;;;;;;2.60;2.50;;;34.10;56.60;;;;;;4954287;28;20201;-67
2022/06/01 08:06:24;;;;;;;2.83;2.63;;;34.20;55.80;;;;;;4973634;28;20430;-66
2022/06/01 08:08:49;;;;;;;2.73;2.53;;;34.20;55.30;;;;;;4974088;28;20466;-66
2022/06/01 08:11:17;;;;;;;2.83;2.70;;;33.90;55.20;;;;;;4974117;28;21017;-66
2022/06/01 08:13:43;;;;;;;1.93;1.83;;;33.60;55.30;;;;;;4973543;28;20239;-67
2022/06/01 08:16:09;;;;;;;2.13;1.97;;;33.60;52.50;;;;;;4957000;28;20421;-65
2022/06/01 08:18:35;;;;;;;1.83;1.73;;;33.60;53.20;;;;;;4954717;28;20188;-66
2022/06/01 08:21:01;;;;;;;1.73;1.67;;;33.80;49.50;;;;;;4954810;29;20424;-66
2022/06/01 08:23:30;;;;;;;2.10;2.00;;;33.70;49.70;;;;;;4954233;28;20441;-68
2022/06/01 08:25:56;;;;;;;2.10;2.00;;;33.80;48.80;;;;;;4954652;28;20456;-67
2022/06/01 08:28:22;;;;;;;1.67;1.57;;;34.00;48.10;;;;;;4954641;29;20453;-66
2022/06/01 08:30:49;;;;;;;1.50;1.40;;;34.60;47.70;;;;;;4955794;28;20673;-68
2022/06/01 08:33:15;;;;;;;1.73;1.63;;;35.40;47.00;;;;;;4957745;28;20451;-67
2022/06/01 08:35:44;;;;;;;1.77;1.67;;;36.00;43.60;;;;;;4954460;28;20420;-67
2022/06/01 08:38:10;;;;;;;1.60;1.60;;;36.70;42.70;;;;;;4954508;28;20428;-67
2022/06/01 08:40:54;;;;;;;2.50;2.40;;;37.50;42.10;;;;;;4955074;28;20427;-67
2022/06/01 08:43:25;;;;;;;2.33;2.23;;;37.60;45.00;;;;;;4957795;28;20193;-66
2022/06/01 08:45:57;;;;;;;2.40;2.30;;;37.00;44.90;;;;;;4963116;28;20435;-67
2022/06/01 08:48:32;;;;;;;2.40;2.30;;;35.70;45.10;;;;;;4976778;28;20451;-66
2022/06/01 08:50:57;;;;;;;1.73;1.63;;;34.40;47.70;;;;;;4976930;28;20451;-67
2022/06/01 08:53:23;;;;;;;1.63;1.53;;;33.90;46.50;;;;;;4976655;28;20761;-67
2022/06/01 08:55:57;;;;;;;1.40;1.40;;;34.10;44.20;;;;;;4977306;28;20644;-67
2022/06/01 08:58:41;;;;;;;2.10;2.00;;;34.60;43.00;;;;;;4975390;28;20407;-67
2022/06/01 09:01:44;;;;;;;1.90;1.80;;;35.20;42.10;;;;;;4958746;28;20451;-67
2022/06/01 09:04:55;;;;;;;2.00;1.90;;;35.70;41.30;;;;;;4860896;29;20864;-66
2022/06/01 09:07:39;;;;;;;2.00;1.90;;;36.10;42.70;;;;;;4942826;28;20837;-66
2022/06/01 09:10:19;;;;;;;1.97;1.83;;;36.30;41.60;;;;;;4957890;28;20491;-67
2022/06/01 09:12:47;;;;;;;1.90;1.80;;;36.10;41.70;;;;;;4957540;29;20452;-67
2022/06/01 09:15:26;;;;;;;2.57;2.47;;;35.40;42.00;;;;;;4975140;28;20440;-67
2022/06/01 09:17:54;;;;;;;2.50;2.10;;;34.60;44.90;;;;;;4976747;28;20443;-66
2022/06/01 09:23:12;;;;;;;2.37;2.27;;;32.70;47.70;;;;;;4975279;28;20861;-67
2022/06/01 09:25:38;;;;;;;2.10;2.00;;;31.70;49.60;;;;;;4977070;28;20478;-66
2022/06/01 09:28:28;;;;;;;2.40;2.20;;;31.90;49.20;;;;;;4970017;28;20432;-66
2022/06/01 09:31:03;;;;;;;7.80;2.77;;;31.20;48.60;;;;;;4957148;28;20434;-67
2022/06/01 09:33:31;;;;;;;2.50;2.30;;;30.50;48.90;;;;;;4963549;28;20435;-64
2022/06/01 09:36:06;;;;;;;1.87;1.77;;;30.70;49.20;;;;;;4976576;28;20481;-66
2022/06/01 09:38:47;;;;;;;4.70;2.10;;;30.70;48.60;;;;;;4966434;28;20935;-65
2022/06/01 09:41:27;;;;;;;2.10;2.00;;;31.00;48.50;;;;;;4956873;29;20417;-65
2022/06/01 09:44:05;;;;;;;1.73;1.63;;;31.60;48.60;;;;;;4967537;28;20451;-66
2022/06/01 09:46:47;;;;;;;2.07;1.87;;;31.90;48.10;;;;;;4976427;28;20478;-66
2022/06/01 09:49:29;;;;;;;2.43;2.33;;;32.30;46.80;;;;;;4974735;28;20431;-66
2022/06/01 09:52:06;;;;;;;2.20;2.00;;;33.00;47.90;;;;;;4976379;28;20473;-66
2022/06/01 09:54:38;;;;;;;2.10;2.00;;;33.60;46.10;;;;;;4975334;28;20427;-67
2022/06/01 09:57:31;;;;;;;1.90;1.80;;;34.20;46.10;;;;;;4975300;28;20764;-67
2022/06/01 10:08:25;;;;;;;2.03;1.93;;;34.40;43.40;;;;;;4971496;28;20559;-66
2022/06/01 10:11:01;;;;;;;2.00;1.90;;;33.20;45.50;;;;;;4974847;28;20580;-66
2022/06/01 10:13:35;;;;;;;1.80;1.70;;;32.90;45.20;;;;;;4956119;28;20448;-65
2022/06/01 10:16:14;;;;;;;2.33;2.13;;;32.50;44.80;;;;;;4956193;28;20863;-66
2022/06/01 10:18:43;;;;;;;2.33;2.20;;;32.10;45.90;;;;;;4960113;28;20477;-65
2022/06/01 10:21:13;;;;;;;3.53;2.20;;;32.10;46.30;;;;;;4956150;28;20928;-64
2022/06/01 10:24:01;;;;;;;4.30;3.13;;;32.30;46.70;;;;;;4956016;28;20484;-66
2022/06/01 10:26:42;;;;;;;1.87;1.77;;;32.00;46.70;;;;;;4956512;28;20475;-65
2022/06/01 10:29:18;;;;;;;3.37;2.00;;;31.20;47.10;;;;;;4956512;28;20542;-65
2022/06/01 10:31:56;;;;;;;2.00;1.90;;;30.40;46.80;;;;;;4956149;28;20522;-65
2022/06/01 10:34:47;;;;;;;2.20;1.87;;;29.60;48.10;;;;;;4956826;28;20822;-65
2022/06/01 10:37:30;;;;;;;1.90;1.80;;;28.90;49.30;;;;;;4956327;28;20744;-64
2022/06/01 10:40:06;;;;;;;2.43;2.00;;;28.60;50.40;;;;;;4956240;28;20417;-64
2022/06/01 10:45:16;;;;;;;2.00;1.90;;;27.70;51.20;;;;;;4956051;29;20393;-64
2022/06/01 10:47:54;;;;;;;2.00;1.90;;;27.30;51.40;;;;;;4955907;29;20860;-64
2022/06/01 10:50:24;;;;;;;1.80;1.70;;;27.10;51.60;;;;;;4968797;28;20235;-64
2022/06/01 10:53:14;;;;;;;1.90;1.67;;;26.60;51.60;;;;;;4974919;28;20765;-64
2022/06/01 10:55:43;;;;;;;2.17;1.93;;;26.40;53.50;;;;;;4960981;28;20452;-64
2022/06/01 10:58:16;;;;;;;1.67;1.57;;;26.80;51.50;;;;;;4974880;28;20378;-64
2022/06/01 11:00:53;;;;;;;2.73;1.67;;;27.20;50.70;;;;;;4974890;28;20470;-64
2022/06/01 11:03:25;;;;;;;1.90;1.57;;;27.60;49.60;;;;;;4974518;28;20434;-64
2022/06/01 11:06:16;;;;;;;1.50;1.40;;;27.60;49.80;;;;;;4954950;28;20410;-64
2022/06/01 11:09:05;;;;;;;1.70;1.60;;;28.00;48.70;;;;;;4955797;29;20387;-63
2022/06/01 11:12:01;;;;;;;1.50;1.40;;;28.20;49.50;;;;;;4955678;28;20870;-65
2022/06/01 11:15:15;;;;;;;0.90;0.90;;;28.30;46.40;;;;;;4954010;28;20927;-65
2022/06/01 11:17:48;;;;;;;1.93;1.83;;;28.40;45.90;;;;;;4915411;29;20407;-64
2022/06/01 11:20:42;;;;;;;1.97;1.47;;;28.50;46.30;;;;;;4931443;29;20408;-65
2022/06/01 11:23:20;;;;;;;1.60;1.50;;;28.50;44.30;;;;;;4933642;29;20476;-66
2022/06/01 11:26:06;;;;;;;1.43;1.10;;;28.30;46.20;;;;;;4934142;29;20581;-65
2022/06/01 11:29:20;;;;;;;1.43;1.33;;;28.00;45.30;;;;;;4934285;29;20415;-65
2022/06/01 11:31:52;;;;;;;1.23;1.23;;;27.80;44.40;;;;;;4877407;29;20471;-66
2022/06/01 11:34:30;;;;;;;2.13;1.50;;;27.60;44.40;;;;;;4913029;29;21080;-66
2022/06/01 11:37:05;;;;;;;1.70;1.20;;;27.40;45.30;;;;;;4915320;29;20745;-65
2022/06/01 11:39:49;;;;;;;1.50;1.40;;;27.30;46.00;;;;;;4915171;29;20388;-67
2022/06/01 11:42:38;;;;;;;1.00;1.00;;;27.20;46.40;;;;;;4914623;29;20430;-65
2022/06/01 11:45:13;;;;;;;1.50;1.40;;;27.20;48.10;;;;;;4899189;29;20485;-65
2022/06/01 11:47:54;;;;;;;1.27;1.20;;;27.20;47.90;;;;;;4922757;28;20387;-66
2022/06/01 11:50:24;;;;;;;1.33;1.30;;;27.30;48.00;;;;;;4973137;28;20487;-65
2022/06/01 11:52:56;;;;;;;1.07;1.07;;;27.30;47.50;;;;;;4973858;28;20882;-65
2022/06/01 11:55:36;;;;;;;1.03;1.03;;;27.20;46.40;;;;;;4974419;28;20497;-65
2022/06/01 11:58:11;;;;;;;1.50;1.40;;;27.20;46.60;;;;;;4974501;28;20821;-66
2022/06/01 12:00:43;;;;;;;1.43;1.37;;;27.20;48.80;;;;;;4974450;28;20431;-65
2022/06/01 12:03:26;;;;;;;1.20;1.20;;;27.30;46.90;;;;;;4967005;28;20424;-65
2022/06/01 12:06:06;;;;;;;1.50;1.40;;;27.40;46.80;;;;;;4954878;29;20409;-64
2022/06/01 12:08:48;;;;;;;1.27;1.27;;;27.40;46.80;;;;;;4955149;28;20736;-64
2022/06/01 12:11:38;;;;;;;1.30;1.20;;;27.30;45.90;;;;;;4955772;28;20459;-65
2022/06/01 12:14:26;;;;;;;1.50;1.40;;;27.20;47.00;;;;;;4955465;28;20526;-65
2022/06/01 12:17:17;;;;;;;1.40;1.30;;;27.20;47.20;;;;;;4956754;28;20945;-64
2022/06/01 12:19:45;;;;;;;1.10;1.07;;;27.20;45.90;;;;;;4958626;29;20391;-69
2022/06/01 12:28:31;;;;;;;2.03;1.80;;;26.80;47.30;;;;;;4967998;28;20839;-67
2022/06/01 12:31:31;;;;;;;1.70;1.37;;;26.70;46.50;;;;;;4958399;28;20455;-64
2022/06/01 12:34:06;;;;;;;1.50;1.40;;;26.50;47.70;;;;;;4945036;28;20453;-66
2022/06/01 12:36:45;;;;;;;1.43;1.30;;;26.50;49.40;;;;;;4969184;28;20734;-65
2022/06/01 12:39:16;;;;;;;1.00;1.00;;;26.70;48.60;;;;;;4977642;28;20552;-66
2022/06/01 12:41:45;;;;;;;1.63;1.53;;;26.70;47.30;;;;;;4977618;28;20420;-65
2022/06/01 12:44:12;;;;;;;1.70;1.60;;;26.70;47.80;;;;;;4976943;28;20416;-65
2022/06/01 12:46:45;;;;;;;2.40;1.33;;;26.80;48.00;;;;;;4977366;28;20441;-66
2022/06/01 12:49:36;;;;;;;1.93;1.83;;;26.80;47.80;;;;;;4977606;28;20397;-66
2022/06/01 12:52:17;;;;;;;1.43;1.30;;;26.60;46.50;;;;;;4959986;28;20569;-65
2022/06/01 12:54:52;;;;;;;1.20;1.20;;;26.50;48.70;;;;;;4957921;28;20452;-65
2022/06/01 12:57:28;;;;;;;1.30;1.30;;;26.40;47.70;;;;;;4958206;29;20473;-65
2022/06/01 13:00:01;;;;;;;1.57;1.50;;;26.30;48.10;;;;;;4957877;28;20407;-66
2022/06/01 13:02:30;;;;;;;1.13;1.13;;;26.20;49.90;;;;;;4957512;28;20423;-65
2022/06/01 13:04:56;;;;;;;1.63;1.53;;;26.00;48.80;;;;;;4958711;28;20462;-67
2022/06/01 13:07:35;;;;;;;1.57;1.30;;;26.00;48.90;;;;;;4957744;28;20407;-65
2022/06/01 13:10:22;;;;;;;1.30;1.20;;;25.90;49.50;;;;;;4957764;28;20409;-66
2022/06/01 13:12:48;;;;;;;1.40;1.37;;;26.00;49.80;;;;;;4957348;28;20911;-65
2022/06/01 13:15:22;;;;;;;1.73;1.63;;;26.10;49.60;;;;;;4957425;29;20421;-67
2022/06/01 13:17:53;;;;;;;2.13;1.67;;;26.20;50.30;;;;;;4957868;28;20179;-67
2022/06/01 13:20:35;;;;;;;1.20;1.20;;;26.30;50.20;;;;;;4965496;28;20495;-66
2022/06/01 13:23:05;;;;;;;1.40;1.30;;;26.30;50.10;;;;;;4976449;28;20421;-66
2022/06/01 13:25:34;;;;;;;1.40;1.40;;;26.20;50.50;;;;;;4976971;28;20545;-66
2022/06/01 13:28:01;;;;;;;1.90;1.80;;;26.00;51.40;;;;;;4975760;28;20422;-67
2022/06/01 13:30:32;;;;;;;1.50;1.40;;;26.00;51.60;;;;;;4976743;28;20464;-67
2022/06/01 13:32:58;;;;;;;1.37;1.27;;;26.10;52.10;;;;;;4976092;28;20415;-66
2022/06/01 13:35:36;;;;;;;1.60;1.50;;;26.00;51.90;;;;;;4965267;28;20508;-65
2022/06/01 13:38:14;;;;;;;3.30;1.73;;;26.10;54.10;;;;;;4957348;28;20411;-67
2022/06/01 13:40:52;;;;;;;2.70;1.47;;;26.30;53.30;;;;;;4957329;28;20733;-65
2022/06/01 13:43:19;;;;;;;1.70;1.60;;;26.20;51.60;;;;;;4961223;28;20444;-64
2022/06/01 13:46:07;;;;;;;1.97;1.87;;;26.00;52.10;;;;;;4968295;28;20936;-66
2022/06/01 13:48:33;;;;;;;1.53;1.40;;;25.70;52.70;;;;;;4956606;29;20431;-66
2022/06/01 13:51:01;;;;;;;1.60;1.50;;;25.40;52.50;;;;;;4956794;29;20971;-65
2022/06/01 13:53:32;;;;;;;2.77;2.57;;;25.30;52.90;;;;;;4960918;28;20494;-65
2022/06/01 13:56:00;;;;;;;2.13;1.80;;;25.10;53.10;;;;;;4963528;28;20432;-65
2022/06/01 13:58:41;;;;;;;1.60;1.50;;;25.00;53.90;;;;;;4964506;28;20428;-66
2022/06/01 14:01:10;;;;;;;1.87;1.70;;;24.90;53.30;;;;;;4966825;28;20441;-65
2022/06/01 14:03:50;;;;;;;1.60;1.50;;;24.80;54.40;;;;;;4956298;28;20439;-65
2022/06/01 14:06:16;;;;;;;1.30;1.20;;;24.60;54.40;;;;;;4957073;28;20386;-66
2022/06/01 14:08:50;;;;;;;2.10;2.00;;;24.70;54.70;;;;;;4971984;28;20435;-66
2022/06/01 14:11:26;;;;;;;1.53;1.43;;;24.80;55.20;;;;;;4972815;28;20211;-67
2022/06/01 14:13:52;;;;;;;1.47;1.37;;;25.10;54.10;;;;;;4973806;28;20505;-67
2022/06/01 14:16:19;;;;;;;3.53;3.23;;;25.10;54.60;;;;;;4975749;28;20776;-63
2022/06/01 14:18:50;;;;;;;2.70;2.50;;;25.20;54.10;;;;;;4975763;28;20487;-65
2022/06/01 14:21:16;;;;;;;1.73;1.63;;;25.30;53.90;;;;;;4975709;28;20749;-64
2022/06/01 14:23:41;;;;;;;1.90;1.80;;;25.30;53.30;;;;;;4975409;28;20502;-65
2022/06/01 14:28:51;;;;;;;1.70;1.60;;;25.10;54.10;;;;;;4970856;28;20191;-66
2022/06/01 14:31:30;;;;;;;2.80;2.60;;;25.00;53.90;;;;;;4975343;28;20463;-65
2022/06/01 14:33:56;;;;;;;2.90;2.70;;;25.00;54.70;;;;;;4967159;28;20227;-65
2022/06/01 14:36:23;;;;;;;1.77;1.67;;;25.00;54.70;;;;;;4973880;28;20462;-66
2022/06/01 14:38:50;;;;;;;1.70;1.60;;;25.00;54.60;;;;;;4994493;28;20539;-67
2022/06/01 14:41:31;;;;;;;1.83;1.73;;;25.10;55.70;;;;;;4957431;28;20428;-66
2022/06/01 14:44:00;;;;;;;1.50;1.40;;;25.10;54.90;;;;;;4973589;28;20455;-65
2022/06/01 14:46:26;;;;;;;1.70;1.60;;;25.20;54.30;;;;;;4960563;28;20438;-66
2022/06/01 14:48:52;;;;;;;1.70;1.60;;;25.20;53.50;;;;;;4974914;28;20423;-66
2022/06/01 14:51:23;;;;;;;1.80;1.63;;;25.20;53.10;;;;;;4974141;28;20448;-65
2022/06/01 14:53:50;;;;;;;2.17;1.90;;;25.10;52.70;;;;;;4974550;28;20214;-64
2022/06/01 14:56:15;;;;;;;1.60;1.50;;;25.00;53.20;;;;;;4975268;28;20768;-65
2022/06/01 14:58:41;;;;;;;1.70;1.60;;;24.90;54.40;;;;;;4975234;28;20420;-65
2022/06/01 15:01:13;;;;;;;2.23;2.00;;;24.80;54.20;;;;;;4976511;28;20177;-65
2022/06/01 15:03:45;;;;;;;2.17;1.97;;;24.80;54.80;;;;;;4983101;28;20204;-66
2022/06/01 15:06:11;;;;;;;1.90;1.80;;;24.80;55.70;;;;;;4974505;28;20807;-65
2022/06/01 15:08:38;;;;;;;1.53;1.43;;;24.80;55.40;;;;;;4975008;28;20400;-64
2022/06/01 15:11:04;;;;;;;1.80;1.70;;;24.90;55.60;;;;;;4974881;28;20459;-65
2022/06/01 15:13:31;;;;;;;1.97;1.83;;;24.90;54.80;;;;;;4974366;28;20428;-67
2022/06/01 15:15:57;;;;;;;1.67;1.57;;;24.90;54.20;;;;;;4974980;28;20404;-65
2022/06/01 15:18:25;;;;;;;2.03;1.67;;;24.90;54.30;;;;;;4975324;28;20403;-66
2022/06/01 15:20:51;;;;;;;1.70;1.60;;;25.00;54.60;;;;;;4972916;28;20482;-66
2022/06/01 15:23:18;;;;;;;1.70;1.60;;;25.10;54.40;;;;;;4975101;28;20802;-66
2022/06/01 15:25:44;;;;;;;1.80;1.70;;;25.00;54.30;;;;;;4993970;28;20262;-66
2022/06/01 15:28:10;;;;;;;1.87;1.77;;;24.90;54.50;;;;;;4994251;28;20447;-64
2022/06/01 15:41:35;;;;;;;5.40;2.07;;;24.20;55.00;;;;;;4974482;28;21010;-67
2022/06/01 15:44:01;;;;;;;1.90;1.60;;;24.10;55.10;;;;;;4974087;28;20487;-65
2022/06/01 15:46:33;;;;;;;2.77;2.47;;;24.10;56.20;;;;;;4973258;28;20204;-66
2022/06/01 15:49:04;;;;;;;2.43;1.50;;;24.10;56.30;;;;;;4973661;28;20399;-65
2022/06/01 15:51:30;;;;;;;4.60;2.50;;;24.00;55.20;;;;;;4970097;28;20463;-65
2022/06/01 15:53:56;;;;;;;2.23;1.80;;;24.00;55.20;;;;;;4962331;28;20425;-65
2022/06/01 15:56:22;;;;;;;2.60;2.40;;;24.00;55.80;;;;;;4976356;28;20223;-65
2022/06/01 15:58:48;;;;;;;2.37;2.17;;;23.90;55.20;;;;;;4978702;28;20414;-65
2022/06/01 16:01:14;;;;;;;1.80;1.70;;;23.90;55.70;;;;;;4967193;28;20552;-66
2022/06/01 16:03:40;;;;;;;2.10;2.00;;;23.90;55.70;;;;;;4975508;28;20207;-65
2022/06/01 16:06:06;;;;;;;1.70;1.60;;;23.90;56.70;;;;;;4972404;28;20515;-65
2022/06/01 16:08:33;;;;;;;1.97;1.40;;;23.90;55.90;;;;;;4976762;28;20851;-65
2022/06/01 16:10:58;;;;;;;1.30;1.30;;;23.70;55.20;;;;;;4975982;28;20291;-66
2022/06/01 16:13:24;;;;;;;1.30;1.30;;;23.60;55.50;;;;;;4971588;28;20531;-66
2022/06/01 16:15:52;;;;;;;2.60;1.63;;;23.50;55.30;;;;;;4965047;28;20181;-65
2022/06/01 16:18:18;;;;;;;1.37;1.37;;;23.50;55.70;;;;;;4977951;28;20542;-67
2022/06/01 16:20:45;;;;;;;0.97;0.93;;;23.50;56.60;;;;;;4966101;28;20440;-65
2022/06/01 16:23:11;;;;;;;2.87;1.40;;;23.50;56.50;;;;;;4958014;28;20964;-65
2022/06/01 16:25:37;;;;;;;1.87;1.77;;;23.60;56.40;;;;;;4958653;28;20576;-65
2022/06/01 16:28:03;;;;;;;1.70;1.60;;;23.80;56.60;;;;;;4958520;28;20423;-66
2022/06/01 16:30:29;;;;;;;1.97;1.87;;;23.90;56.40;;;;;;4964960;28;20518;-66
2022/06/01 16:32:55;;;;;;;1.20;1.20;;;24.00;56.30;;;;;;4966629;28;20421;-66
2022/06/01 16:35:25;;;;;;;2.03;1.47;;;24.00;55.60;;;;;;4972764;28;20432;-65
2022/06/01 16:37:51;;;;;;;1.40;1.30;;;24.00;55.90;;;;;;4970496;28;20762;-66
2022/06/01 16:40:19;;;;;;;1.70;1.53;;;24.00;55.40;;;;;;4963502;28;20819;-65
2022/06/01 16:42:47;;;;;;;1.80;1.70;;;23.90;55.80;;;;;;4977167;28;20898;-66
2022/06/01 16:45:18;;;;;;;6.20;1.87;;;23.90;56.30;;;;;;4970250;28;20448;-65
2022/06/01 16:47:45;;;;;;;1.87;1.77;;;23.80;56.50;;;;;;4957880;28;20412;-65
2022/06/01 16:50:12;;;;;;;1.67;1.57;;;23.70;55.40;;;;;;4969263;28;20416;-66
2022/06/01 16:52:38;;;;;;;1.40;1.30;;;23.50;55.50;;;;;;4965577;28;20436;-66
2022/06/01 16:55:04;;;;;;;1.30;1.30;;;23.40;55.90;;;;;;4960780;28;20423;-64
2022/06/01 16:57:30;;;;;;;1.33;1.27;;;23.30;55.90;;;;;;4967192;28;20261;-65
2022/06/01 16:59:56;;;;;;;6.90;1.33;;;23.20;56.00;;;;;;4972033;28;20979;-65
2022/06/01 17:02:22;;;;;;;1.50;1.50;;;23.20;56.70;;;;;;4956401;28;20439;-66
2022/06/01 17:04:48;;;;;;;6.77;2.20;;;23.10;56.80;;;;;;4958290;28;20470;-65
2022/06/01 17:07:16;;;;;;;1.20;1.10;;;23.10;56.40;;;;;;4962780;28;20188;-65
2022/06/01 17:09:42;;;;;;;3.00;2.23;;;23.00;56.60;;;;;;4957419;28;20216;-65
2022/06/01 17:12:11;;;;;;;1.90;1.73;;;22.90;56.50;;;;;;4957579;28;20506;-66
2022/06/01 17:14:38;;;;;;;1.40;1.40;;;22.90;56.80;;;;;;4973108;28;21002;-65
2022/06/01 17:17:06;;;;;;;1.10;1.10;;;22.80;56.60;;;;;;4960278;28;20423;-65
2022/06/01 17:19:33;;;;;;;1.40;1.30;;;22.60;56.70;;;;;;4959446;28;20483;-65
2022/06/01 17:21:58;;;;;;;1.50;1.30;;;22.50;56.70;;;;;;4961971;28;20470;-64
2022/06/01 17:24:25;;;;;;;1.47;1.40;;;22.40;57.50;;;;;;4965396;28;20473;-64
2022/06/01 17:26:51;;;;;;;1.37;1.37;;;22.30;56.80;;;;;;4959873;28;20210;-64
2022/06/01 17:29:16;;;;;;;1.63;1.53;;;22.20;56.80;;;;;;4974204;28;20439;-64
2022/06/01 17:31:43;;;;;;;1.57;1.47;;;22.10;56.90;;;;;;4957214;29;20460;-61
2022/06/01 17:34:09;;;;;;;1.13;1.13;;;22.00;57.00;;;;;;4965210;28;20223;-61
2022/06/01 17:36:36;;;;;;;1.43;1.43;;;21.90;57.10;;;;;;4965645;28;20479;-63
2022/06/01 17:39:03;;;;;;;1.50;1.43;;;21.90;57.50;;;;;;4957027;29;20769;-61
2022/06/01 17:41:29;;;;;;;1.73;1.60;;;21.80;57.40;;;;;;4971957;28;20424;-63
2022/06/01 17:43:54;;;;;;;1.43;1.33;;;21.80;57.70;;;;;;4975663;28;20439;-62
2022/06/01 17:46:20;;;;;;;2.77;1.50;;;21.70;57.90;;;;;;4961427;28;20433;-63
2022/06/01 17:48:47;;;;;;;1.10;1.10;;;21.60;57.90;;;;;;4960844;28;20187;-62
2022/06/01 17:51:13;;;;;;;1.27;1.27;;;21.60;58.30;;;;;;4973188;28;20208;-63
2022/06/01 17:53:39;;;;;;;1.90;1.80;;;21.50;58.30;;;;;;4975108;28;20915;-65